sensor_id;sensor_type;location;lat;lon;timestamp;pressure;altitude;pressure_sealevel;temperature;humidity
36222;BME280;22266;52.340;4.962;2023-03-23T00:00:05;100034.19;;;11.53;84.27
36222;BME280;22266;52.340;4.962;2023-03-23T00:02:36;100034.84;;;11.48;84.40
36222;BME280;22266;52.340;4.962;2023-03-23T00:05:04;100049.53;;;11.52;83.84
36222;BME280;22266;52.340;4.962;2023-03-23T00:07:30;100047.25;;;11.56;84.02
36222;BME280;22266;52.340;4.962;2023-03-23T00:09:55;100051.63;;;11.50;84.05
36222;BME280;22266;52.340;4.962;2023-03-23T00:12:26;100042.66;;;11.56;83.59
36222;BME280;22266;52.340;4.962;2023-03-23T00:15:03;100028.38;;;11.56;83.68
36222;BME280;22266;52.340;4.962;2023-03-23T00:17:30;100032.94;;;11.55;83.51
36222;BME280;22266;52.340;4.962;2023-03-23T00:19:58;100037.06;;;11.58;83.34
36222;BME280;22266;52.340;4.962;2023-03-23T00:22:27;100037.22;;;11.63;83.19
36222;BME280;22266;52.340;4.962;2023-03-23T00:24:52;100038.34;;;11.55;83.31
36222;BME280;22266;52.340;4.962;2023-03-23T00:27:18;100043.50;;;11.57;82.85
36222;BME280;22266;52.340;4.962;2023-03-23T00:29:46;100041.69;;;11.51;83.37
36222;BME280;22266;52.340;4.962;2023-03-23T00:32:12;100029.63;;;11.53;82.89
36222;BME280;22266;52.340;4.962;2023-03-23T00:34:40;100018.19;;;11.58;82.83
36222;BME280;22266;52.340;4.962;2023-03-23T00:37:08;100018.19;;;11.58;82.75
36222;BME280;22266;52.340;4.962;2023-03-23T00:39:38;100015.28;;;11.59;82.66
36222;BME280;22266;52.340;4.962;2023-03-23T00:42:04;100013.31;;;11.67;82.37
36222;BME280;22266;52.340;4.962;2023-03-23T00:44:32;100016.25;;;11.65;82.30
36222;BME280;22266;52.340;4.962;2023-03-23T00:47:00;100009.59;;;11.68;82.11
36222;BME280;22266;52.340;4.962;2023-03-23T00:49:26;100011.47;;;11.67;81.77
36222;BME280;22266;52.340;4.962;2023-03-23T00:51:54;100013.13;;;11.68;81.68
36222;BME280;22266;52.340;4.962;2023-03-23T00:54:21;100005.72;;;11.63;81.78
36222;BME280;22266;52.340;4.962;2023-03-23T00:56:48;99998.22;;;11.66;81.80
36222;BME280;22266;52.340;4.962;2023-03-23T00:59:14;99994.03;;;11.70;81.54
36222;BME280;22266;52.340;4.962;2023-03-23T01:01:40;99999.41;;;11.70;81.19
36222;BME280;22266;52.340;4.962;2023-03-23T01:04:06;99996.28;;;11.73;81.32
36222;BME280;22266;52.340;4.962;2023-03-23T01:06:34;100001.66;;;11.73;81.18
36222;BME280;22266;52.340;4.962;2023-03-23T01:09:07;100002.06;;;11.76;81.21
36222;BME280;22266;52.340;4.962;2023-03-23T01:11:34;100005.19;;;11.73;81.17
36222;BME280;22266;52.340;4.962;2023-03-23T01:14:00;100004.75;;;11.76;81.11
36222;BME280;22266;52.340;4.962;2023-03-23T01:16:26;99999.78;;;11.73;80.92
36222;BME280;22266;52.340;4.962;2023-03-23T01:18:51;99997.16;;;11.67;81.02
36222;BME280;22266;52.340;4.962;2023-03-23T01:21:18;99983.25;;;11.70;80.82
36222;BME280;22266;52.340;4.962;2023-03-23T01:23:44;99981.75;;;11.74;80.56
36222;BME280;22266;52.340;4.962;2023-03-23T01:26:16;99968.94;;;11.69;80.66
36222;BME280;22266;52.340;4.962;2023-03-23T01:28:43;99956.06;;;11.71;80.79
36222;BME280;22266;52.340;4.962;2023-03-23T01:31:11;99964.38;;;11.70;80.72
36222;BME280;22266;52.340;4.962;2023-03-23T01:33:39;99967.06;;;11.70;80.66
36222;BME280;22266;52.340;4.962;2023-03-23T01:36:08;99961.91;;;11.68;80.58
36222;BME280;22266;52.340;4.962;2023-03-23T01:38:35;99956.50;;;11.68;80.67
36222;BME280;22266;52.340;4.962;2023-03-23T01:41:03;99955.69;;;11.68;80.70
36222;BME280;22266;52.340;4.962;2023-03-23T01:43:29;99945.25;;;11.53;80.80
36222;BME280;22266;52.340;4.962;2023-03-23T01:45:55;99953.28;;;11.59;80.79
36222;BME280;22266;52.340;4.962;2023-03-23T01:48:29;99959.69;;;11.58;80.78
36222;BME280;22266;52.340;4.962;2023-03-23T01:51:02;99951.25;;;11.55;81.07
36222;BME280;22266;52.340;4.962;2023-03-23T01:53:37;99965.72;;;11.60;80.55
36222;BME280;22266;52.340;4.962;2023-03-23T01:56:04;99956.13;;;11.64;80.28
36222;BME280;22266;52.340;4.962;2023-03-23T01:58:33;99954.50;;;11.63;80.43
36222;BME280;22266;52.340;4.962;2023-03-23T02:01:04;99956.94;;;11.65;80.38
36222;BME280;22266;52.340;4.962;2023-03-23T02:03:32;99950.22;;;11.56;80.42
36222;BME280;22266;52.340;4.962;2023-03-23T02:05:58;99934.63;;;11.58;80.35
36222;BME280;22266;52.340;4.962;2023-03-23T02:08:36;99940.00;;;11.58;80.31
36222;BME280;22266;52.340;4.962;2023-03-23T02:11:20;99943.72;;;11.63;80.33
36222;BME280;22266;52.340;4.962;2023-03-23T02:13:47;99935.38;;;11.65;80.32
36222;BME280;22266;52.340;4.962;2023-03-23T02:27:00;99927.81;;;11.55;80.50
36222;BME280;22266;52.340;4.962;2023-03-23T02:34:48;99927.53;;;11.63;80.10
36222;BME280;22266;52.340;4.962;2023-03-23T02:37:24;99929.41;;;11.63;80.08
36222;BME280;22266;52.340;4.962;2023-03-23T02:39:57;99935.81;;;11.62;80.08
36222;BME280;22266;52.340;4.962;2023-03-23T02:42:29;99932.84;;;11.52;80.66
36222;BME280;22266;52.340;4.962;2023-03-23T02:45:01;99936.28;;;11.59;80.28
36222;BME280;22266;52.340;4.962;2023-03-23T02:47:29;99933.38;;;11.60;80.23
36222;BME280;22266;52.340;4.962;2023-03-23T02:49:56;99921.16;;;11.58;80.38
36222;BME280;22266;52.340;4.962;2023-03-23T02:52:27;99925.13;;;11.55;80.64
36222;BME280;22266;52.340;4.962;2023-03-23T02:54:54;99933.59;;;11.59;80.20
36222;BME280;22266;52.340;4.962;2023-03-23T02:57:23;99931.34;;;11.56;80.42
36222;BME280;22266;52.340;4.962;2023-03-23T02:59:51;99924.66;;;11.58;80.41
36222;BME280;22266;52.340;4.962;2023-03-23T03:02:19;99932.53;;;11.60;80.72
36222;BME280;22266;52.340;4.962;2023-03-23T03:07:43;99918.63;;;11.63;80.72
36222;BME280;22266;52.340;4.962;2023-03-23T03:12:57;99918.69;;;11.56;81.01
36222;BME280;22266;52.340;4.962;2023-03-23T03:15:49;99903.19;;;11.52;81.10
36222;BME280;22266;52.340;4.962;2023-03-23T03:19:16;99916.00;;;11.56;81.13
36222;BME280;22266;52.340;4.962;2023-03-23T03:21:19;99911.19;;;11.58;81.11
36222;BME280;22266;52.340;4.962;2023-03-23T03:23:54;99913.16;;;11.51;81.01
36222;BME280;22266;52.340;4.962;2023-03-23T03:26:23;99909.53;;;11.39;81.42
36222;BME280;22266;52.340;4.962;2023-03-23T03:28:55;99912.22;;;11.39;81.93
36222;BME280;22266;52.340;4.962;2023-03-23T03:31:26;99897.47;;;11.42;81.85
36222;BME280;22266;52.340;4.962;2023-03-23T03:33:53;99909.44;;;11.46;81.93
36222;BME280;22266;52.340;4.962;2023-03-23T03:36:22;99931.41;;;11.49;82.32
36222;BME280;22266;52.340;4.962;2023-03-23T03:38:50;99935.09;;;11.55;82.24
36222;BME280;22266;52.340;4.962;2023-03-23T03:41:18;99955.66;;;11.49;83.00
36222;BME280;22266;52.340;4.962;2023-03-23T03:43:45;99955.66;;;11.49;83.18
36222;BME280;22266;52.340;4.962;2023-03-23T03:46:11;99962.53;;;11.45;83.50
36222;BME280;22266;52.340;4.962;2023-03-23T03:48:37;99947.47;;;11.37;83.76
36222;BME280;22266;52.340;4.962;2023-03-23T03:51:03;99955.81;;;11.29;84.65
36222;BME280;22266;52.340;4.962;2023-03-23T03:53:32;99945.44;;;11.33;84.61
36222;BME280;22266;52.340;4.962;2023-03-23T03:55:57;99941.16;;;11.25;84.70
36222;BME280;22266;52.340;4.962;2023-03-23T03:58:28;99947.16;;;11.27;84.99
36222;BME280;22266;52.340;4.962;2023-03-23T04:00:59;99949.91;;;11.21;84.97
36222;BME280;22266;52.340;4.962;2023-03-23T04:03:29;99944.94;;;11.18;84.62
36222;BME280;22266;52.340;4.962;2023-03-23T04:06:05;99944.50;;;11.21;84.54
36222;BME280;22266;52.340;4.962;2023-03-23T04:08:32;99941.22;;;11.19;84.09
36222;BME280;22266;52.340;4.962;2023-03-23T04:10:58;99941.38;;;11.24;84.09
36222;BME280;22266;52.340;4.962;2023-03-23T04:13:27;99943.66;;;11.27;84.07
36222;BME280;22266;52.340;4.962;2023-03-23T04:16:02;99947.00;;;11.22;83.80
36222;BME280;22266;52.340;4.962;2023-03-23T04:18:28;99946.34;;;11.27;83.66
36222;BME280;22266;52.340;4.962;2023-03-23T04:20:54;99943.25;;;11.23;83.88
36222;BME280;22266;52.340;4.962;2023-03-23T04:23:26;99956.72;;;11.23;84.03
36222;BME280;22266;52.340;4.962;2023-03-23T04:25:53;99949.50;;;11.17;84.51
36222;BME280;22266;52.340;4.962;2023-03-23T04:28:26;99978.59;;;11.08;85.05
36222;BME280;22266;52.340;4.962;2023-03-23T04:31:11;99956.19;;;11.14;85.15
36222;BME280;22266;52.340;4.962;2023-03-23T04:33:42;99968.47;;;11.04;85.21
36222;BME280;22266;52.340;4.962;2023-03-23T04:36:08;99983.53;;;10.86;85.51
36222;BME280;22266;52.340;4.962;2023-03-23T04:38:38;99981.69;;;10.80;86.22
36222;BME280;22266;52.340;4.962;2023-03-23T04:41:11;99980.47;;;10.76;86.36
36222;BME280;22266;52.340;4.962;2023-03-23T04:44:12;99980.84;;;10.80;86.12
36222;BME280;22266;52.340;4.962;2023-03-23T04:46:45;99989.09;;;10.85;86.18
36222;BME280;22266;52.340;4.962;2023-03-23T04:49:16;99987.84;;;10.87;86.53
36222;BME280;22266;52.340;4.962;2023-03-23T04:51:47;100000.66;;;10.92;86.26
36222;BME280;22266;52.340;4.962;2023-03-23T04:54:46;99989.94;;;10.85;86.46
36222;BME280;22266;52.340;4.962;2023-03-23T04:57:11;100008.56;;;10.87;86.74
36222;BME280;22266;52.340;4.962;2023-03-23T04:59:42;100012.50;;;10.84;87.17
36222;BME280;22266;52.340;4.962;2023-03-23T05:02:18;100003.38;;;10.85;86.73
36222;BME280;22266;52.340;4.962;2023-03-23T05:04:46;100002.13;;;10.88;86.93
36222;BME280;22266;52.340;4.962;2023-03-23T05:07:17;100011.44;;;10.92;86.63
36222;BME280;22266;52.340;4.962;2023-03-23T05:09:47;99987.22;;;10.85;86.67
36222;BME280;22266;52.340;4.962;2023-03-23T05:12:13;99983.06;;;10.89;86.84
36222;BME280;22266;52.340;4.962;2023-03-23T05:14:52;99997.00;;;10.80;86.48
36222;BME280;22266;52.340;4.962;2023-03-23T05:17:20;100004.44;;;10.84;86.57
36222;BME280;22266;52.340;4.962;2023-03-23T05:19:52;100003.59;;;10.91;86.34
36222;BME280;22266;52.340;4.962;2023-03-23T05:22:41;100015.97;;;10.98;86.01
36222;BME280;22266;52.340;4.962;2023-03-23T05:25:08;100014.91;;;10.99;85.46
36222;BME280;22266;52.340;4.962;2023-03-23T05:27:37;100012.66;;;10.96;85.53
36222;BME280;22266;52.340;4.962;2023-03-23T05:30:12;100014.75;;;10.94;85.36
36222;BME280;22266;52.340;4.962;2023-03-23T05:32:42;99993.38;;;10.99;85.12
36222;BME280;22266;52.340;4.962;2023-03-23T05:35:24;100009.13;;;10.96;85.06
36222;BME280;22266;52.340;4.962;2023-03-23T05:37:51;100008.91;;;10.97;84.74
36222;BME280;22266;52.340;4.962;2023-03-23T05:40:19;100022.59;;;10.96;84.84
36222;BME280;22266;52.340;4.962;2023-03-23T05:42:53;100025.94;;;10.91;84.69
36222;BME280;22266;52.340;4.962;2023-03-23T05:45:28;100034.22;;;10.89;84.37
36222;BME280;22266;52.340;4.962;2023-03-23T05:47:53;100034.22;;;10.89;84.10
36222;BME280;22266;52.340;4.962;2023-03-23T05:50:20;100033.00;;;10.85;83.75
36222;BME280;22266;52.340;4.962;2023-03-23T05:52:47;100036.97;;;10.83;83.68
36222;BME280;22266;52.340;4.962;2023-03-23T05:55:14;100035.53;;;10.80;83.47
36222;BME280;22266;52.340;4.962;2023-03-23T05:57:42;100033.84;;;10.86;83.26
36222;BME280;22266;52.340;4.962;2023-03-23T06:00:25;100037.56;;;10.85;83.16
36222;BME280;22266;52.340;4.962;2023-03-23T06:03:00;100042.09;;;10.91;82.87
36222;BME280;22266;52.340;4.962;2023-03-23T06:05:43;100049.94;;;10.93;82.10
36222;BME280;22266;52.340;4.962;2023-03-23T06:08:10;100045.38;;;10.93;82.63
36222;BME280;22266;52.340;4.962;2023-03-23T06:10:35;100047.88;;;10.95;82.51
36222;BME280;22266;52.340;4.962;2023-03-23T06:13:04;100046.44;;;10.92;82.50
36222;BME280;22266;52.340;4.962;2023-03-23T06:15:43;100049.13;;;10.92;82.37
36222;BME280;22266;52.340;4.962;2023-03-23T06:18:38;100058.44;;;10.89;82.32
36222;BME280;22266;52.340;4.962;2023-03-23T06:21:14;100051.66;;;10.87;82.43
36222;BME280;22266;52.340;4.962;2023-03-23T06:23:51;100075.22;;;10.92;82.71
36222;BME280;22266;52.340;4.962;2023-03-23T06:26:20;100054.94;;;10.89;82.56
36222;BME280;22266;52.340;4.962;2023-03-23T06:28:51;100062.81;;;10.91;82.52
36222;BME280;22266;52.340;4.962;2023-03-23T06:31:17;100073.53;;;10.97;82.55
36222;BME280;22266;52.340;4.962;2023-03-23T06:33:46;100066.91;;;11.00;82.27
36222;BME280;22266;52.340;4.962;2023-03-23T06:36:35;100084.31;;;10.97;82.15
36222;BME280;22266;52.340;4.962;2023-03-23T06:39:08;100087.00;;;10.97;82.14
36222;BME280;22266;52.340;4.962;2023-03-23T06:41:50;100093.00;;;10.99;82.21
36222;BME280;22266;52.340;4.962;2023-03-23T06:44:17;100094.69;;;10.94;82.36
36222;BME280;22266;52.340;4.962;2023-03-23T06:46:42;100098.25;;;10.87;82.38
36222;BME280;22266;52.340;4.962;2023-03-23T06:49:22;100090.16;;;10.87;82.42
36222;BME280;22266;52.340;4.962;2023-03-23T06:52:06;100097.19;;;10.95;81.96
36222;BME280;22266;52.340;4.962;2023-03-23T06:54:33;100092.38;;;10.97;81.66
36222;BME280;22266;52.340;4.962;2023-03-23T06:57:01;100106.31;;;10.94;81.86
36222;BME280;22266;52.340;4.962;2023-03-23T06:59:26;100096.94;;;10.97;81.66
36222;BME280;22266;52.340;4.962;2023-03-23T07:01:52;100098.56;;;11.04;81.42
36222;BME280;22266;52.340;4.962;2023-03-23T07:04:18;100098.16;;;11.01;81.01
36222;BME280;22266;52.340;4.962;2023-03-23T07:06:51;100099.63;;;11.03;81.02
36222;BME280;22266;52.340;4.962;2023-03-23T07:09:17;100098.41;;;10.99;81.18
36222;BME280;22266;52.340;4.962;2023-03-23T07:11:42;100098.00;;;10.96;80.82
36222;BME280;22266;52.340;4.962;2023-03-23T07:14:19;100095.06;;;10.97;80.77
36222;BME280;22266;52.340;4.962;2023-03-23T07:16:45;100097.13;;;11.02;80.49
36222;BME280;22266;52.340;4.962;2023-03-23T07:19:11;100090.47;;;11.11;80.58
36222;BME280;22266;52.340;4.962;2023-03-23T07:21:37;100098.16;;;11.07;80.21
36222;BME280;22266;52.340;4.962;2023-03-23T07:24:02;100092.53;;;11.09;80.02
36222;BME280;22266;52.340;4.962;2023-03-23T07:26:42;100114.09;;;11.09;80.09
36222;BME280;22266;52.340;4.962;2023-03-23T07:29:09;100102.06;;;11.11;79.84
36222;BME280;22266;52.340;4.962;2023-03-23T07:31:40;100122.38;;;11.07;79.88
36222;BME280;22266;52.340;4.962;2023-03-23T07:34:06;100116.78;;;11.09;79.58
36222;BME280;22266;52.340;4.962;2023-03-23T07:36:50;100112.00;;;11.11;79.70
36222;BME280;22266;52.340;4.962;2023-03-23T07:39:16;100124.00;;;11.15;79.72
36222;BME280;22266;52.340;4.962;2023-03-23T07:41:43;100126.28;;;11.18;79.63
36222;BME280;22266;52.340;4.962;2023-03-23T07:44:20;100128.50;;;11.21;79.50
36222;BME280;22266;52.340;4.962;2023-03-23T07:46:49;100145.13;;;11.18;79.45
36222;BME280;22266;52.340;4.962;2023-03-23T07:49:18;100142.34;;;11.31;79.56
36222;BME280;22266;52.340;4.962;2023-03-23T07:51:53;100141.28;;;11.39;78.93
36222;BME280;22266;52.340;4.962;2023-03-23T07:54:19;100140.81;;;11.42;78.03
36222;BME280;22266;52.340;4.962;2023-03-23T07:56:59;100148.59;;;11.25;77.35
36222;BME280;22266;52.340;4.962;2023-03-23T07:59:28;100136.16;;;11.24;77.94
36222;BME280;22266;52.340;4.962;2023-03-23T08:01:56;100122.28;;;11.27;78.33
36222;BME280;22266;52.340;4.962;2023-03-23T08:04:32;100130.28;;;11.41;78.05
36222;BME280;22266;52.340;4.962;2023-03-23T08:07:20;100135.81;;;11.46;77.05
36222;BME280;22266;52.340;4.962;2023-03-23T08:09:47;100138.09;;;11.49;76.73
36222;BME280;22266;52.340;4.962;2023-03-23T08:12:34;100131.31;;;11.71;76.95
36222;BME280;22266;52.340;4.962;2023-03-23T08:15:19;100136.94;;;11.95;76.06
36222;BME280;22266;52.340;4.962;2023-03-23T08:18:07;100145.69;;;12.15;74.94
36222;BME280;22266;52.340;4.962;2023-03-23T08:20:42;100149.41;;;12.21;74.28
36222;BME280;22266;52.340;4.962;2023-03-23T08:23:19;100161.59;;;12.23;74.25
36222;BME280;22266;52.340;4.962;2023-03-23T08:26:06;100152.69;;;12.23;74.22
36222;BME280;22266;52.340;4.962;2023-03-23T08:29:04;100152.34;;;12.37;74.16
36222;BME280;22266;52.340;4.962;2023-03-23T08:31:59;100148.47;;;12.52;74.05
36222;BME280;22266;52.340;4.962;2023-03-23T08:34:27;100149.28;;;12.71;72.90
36222;BME280;22266;52.340;4.962;2023-03-23T08:37:04;100145.59;;;12.83;72.41
36222;BME280;22266;52.340;4.962;2023-03-23T08:39:59;100166.16;;;13.03;72.11
36222;BME280;22266;52.340;4.962;2023-03-23T08:42:47;100163.88;;;13.18;71.56
36222;BME280;22266;52.340;4.962;2023-03-23T08:45:32;100158.13;;;13.33;71.58
36222;BME280;22266;52.340;4.962;2023-03-23T08:48:22;100171.06;;;13.43;70.74
36222;BME280;22266;52.340;4.962;2023-03-23T08:51:06;100163.44;;;13.51;70.54
36222;BME280;22266;52.340;4.962;2023-03-23T08:53:48;100171.19;;;13.48;69.35
36222;BME280;22266;52.340;4.962;2023-03-23T08:56:34;100177.59;;;13.53;69.66
36222;BME280;22266;52.340;4.962;2023-03-23T08:59:22;100169.63;;;13.70;69.36
36222;BME280;22266;52.340;4.962;2023-03-23T09:02:11;100178.56;;;13.71;68.71
36222;BME280;22266;52.340;4.962;2023-03-23T09:04:51;100180.56;;;13.75;69.27
36222;BME280;22266;52.340;4.962;2023-03-23T09:07:30;100175.78;;;13.77;68.85
36222;BME280;22266;52.340;4.962;2023-03-23T09:09:55;100179.78;;;13.87;68.45
36222;BME280;22266;52.340;4.962;2023-03-23T09:12:21;100186.25;;;13.97;68.19
36222;BME280;22266;52.340;4.962;2023-03-23T09:14:46;100174.50;;;13.92;67.73
36222;BME280;22266;52.340;4.962;2023-03-23T09:17:12;100189.75;;;13.74;67.31
36222;BME280;22266;52.340;4.962;2023-03-23T09:19:37;100169.56;;;13.47;67.95
36222;BME280;22266;52.340;4.962;2023-03-23T09:22:03;100171.53;;;13.40;68.19
36222;BME280;22266;52.340;4.962;2023-03-23T09:24:29;100175.03;;;13.40;68.83
36222;BME280;22266;52.340;4.962;2023-03-23T09:26:55;100170.78;;;13.32;68.91
36222;BME280;22266;52.340;4.962;2023-03-23T09:29:20;100165.75;;;13.36;69.05
36222;BME280;22266;52.340;4.962;2023-03-23T09:31:46;100174.53;;;13.31;68.82
36222;BME280;22266;52.340;4.962;2023-03-23T09:34:13;100180.06;;;13.36;69.71
36222;BME280;22266;52.340;4.962;2023-03-23T09:36:41;100181.97;;;13.36;69.12
36222;BME280;22266;52.340;4.962;2023-03-23T09:39:06;100179.88;;;13.38;69.04
36222;BME280;22266;52.340;4.962;2023-03-23T09:41:53;100179.25;;;13.36;68.93
36222;BME280;22266;52.340;4.962;2023-03-23T09:44:34;100178.44;;;13.35;68.42
36222;BME280;22266;52.340;4.962;2023-03-23T09:49:50;100190.69;;;13.38;66.84
36222;BME280;22266;52.340;4.962;2023-03-23T09:52:18;100193.06;;;13.46;66.10
36222;BME280;22266;52.340;4.962;2023-03-23T09:54:52;100198.59;;;13.51;65.83
36222;BME280;22266;52.340;4.962;2023-03-23T09:57:34;100199.91;;;13.60;65.62
36222;BME280;22266;52.340;4.962;2023-03-23T10:00:06;100199.78;;;13.85;65.25
36222;BME280;22266;52.340;4.962;2023-03-23T10:05:28;100213.03;;;14.29;62.88
36222;BME280;22266;52.340;4.962;2023-03-23T10:07:55;100207.03;;;14.39;63.05
36222;BME280;22266;52.340;4.962;2023-03-23T10:10:25;100203.50;;;14.38;61.94
36222;BME280;22266;52.340;4.962;2023-03-23T10:12:56;100213.72;;;14.24;61.89
36222;BME280;22266;52.340;4.962;2023-03-23T10:15:27;100213.50;;;14.14;61.79
36222;BME280;22266;52.340;4.962;2023-03-23T10:18:02;100220.91;;;14.19;62.19
36222;BME280;22266;52.340;4.962;2023-03-23T10:20:54;100218.50;;;13.99;62.11
36222;BME280;22266;52.340;4.962;2023-03-23T10:26:11;100230.84;;;13.95;62.16
36222;BME280;22266;52.340;4.962;2023-03-23T10:28:42;100228.97;;;13.95;63.08
36222;BME280;22266;52.340;4.962;2023-03-23T10:31:12;100217.13;;;14.08;63.04
36222;BME280;22266;52.340;4.962;2023-03-23T10:33:41;100222.44;;;14.26;62.79
36222;BME280;22266;52.340;4.962;2023-03-23T10:36:14;100217.16;;;14.31;61.31
36222;BME280;22266;52.340;4.962;2023-03-23T10:41:18;100229.19;;;14.47;61.46
36222;BME280;22266;52.340;4.962;2023-03-23T10:43:45;100224.38;;;14.61;61.16
36222;BME280;22266;52.340;4.962;2023-03-23T10:49:08;100232.13;;;14.81;59.86
36222;BME280;22266;52.340;4.962;2023-03-23T10:51:42;100234.28;;;14.79;59.62
36222;BME280;22266;52.340;4.962;2023-03-23T10:54:09;100231.66;;;14.84;60.45
36222;BME280;22266;52.340;4.962;2023-03-23T10:56:36;100246.03;;;14.84;59.47
36222;BME280;22266;52.340;4.962;2023-03-23T11:01:54;100247.53;;;14.45;59.88
36222;BME280;22266;52.340;4.962;2023-03-23T11:04:20;100242.81;;;14.41;59.89
36222;BME280;22266;52.340;4.962;2023-03-23T11:06:50;100242.25;;;14.39;59.79
36222;BME280;22266;52.340;4.962;2023-03-23T11:09:22;100246.94;;;14.31;59.95
36222;BME280;22266;52.340;4.962;2023-03-23T11:11:58;100256.34;;;14.41;60.32
36222;BME280;22266;52.340;4.962;2023-03-23T11:14:33;100257.81;;;14.55;60.59
36222;BME280;22266;52.340;4.962;2023-03-23T11:17:03;100247.09;;;14.60;60.66
36222;BME280;22266;52.340;4.962;2023-03-23T11:19:31;100244.16;;;14.73;60.93
36222;BME280;22266;52.340;4.962;2023-03-23T11:22:08;100242.16;;;14.69;59.56
36222;BME280;22266;52.340;4.962;2023-03-23T11:24:44;100241.78;;;14.53;58.83
36222;BME280;22266;52.340;4.962;2023-03-23T11:27:11;100246.59;;;14.40;59.12
36222;BME280;22266;52.340;4.962;2023-03-23T11:32:18;100248.47;;;14.27;60.27
36222;BME280;22266;52.340;4.962;2023-03-23T11:34:48;100250.28;;;14.57;60.46
36222;BME280;22266;52.340;4.962;2023-03-23T11:37:41;100244.41;;;14.60;59.77
36222;BME280;22266;52.340;4.962;2023-03-23T11:42:56;100255.81;;;14.50;59.07
36222;BME280;22266;52.340;4.962;2023-03-23T11:45:35;100257.78;;;14.43;58.01
36222;BME280;22266;52.340;4.962;2023-03-23T11:48:14;100238.72;;;14.50;58.54
36222;BME280;22266;52.340;4.962;2023-03-23T11:56:03;100225.19;;;14.73;58.33
36222;BME280;22266;52.340;4.962;2023-03-23T11:58:31;100238.38;;;14.81;58.22
36222;BME280;22266;52.340;4.962;2023-03-23T12:04:00;100244.16;;;14.73;57.82
36222;BME280;22266;52.340;4.962;2023-03-23T12:06:47;100237.28;;;14.94;58.05
36222;BME280;22266;52.340;4.962;2023-03-23T12:12:22;100239.16;;;15.17;57.42
36222;BME280;22266;52.340;4.962;2023-03-23T12:15:07;100248.34;;;15.16;57.59
36222;BME280;22266;52.340;4.962;2023-03-23T12:18:08;100255.44;;;15.05;57.77
36222;BME280;22266;52.340;4.962;2023-03-23T12:23:42;100260.75;;;14.53;57.72
36222;BME280;22266;52.340;4.962;2023-03-23T12:26:26;100253.56;;;14.47;58.20
36222;BME280;22266;52.340;4.962;2023-03-23T12:29:19;100253.34;;;14.49;59.04
36222;BME280;22266;52.340;4.962;2023-03-23T12:35:13;100254.28;;;14.66;59.01
36222;BME280;22266;52.340;4.962;2023-03-23T12:43:19;100236.72;;;14.92;58.42
36222;BME280;22266;52.340;4.962;2023-03-23T12:48:26;100237.16;;;15.13;58.09
36222;BME280;22266;52.340;4.962;2023-03-23T12:53:56;100250.38;;;14.86;57.54
36222;BME280;22266;52.340;4.962;2023-03-23T12:56:30;100242.25;;;14.62;57.15
36222;BME280;22266;52.340;4.962;2023-03-23T12:59:17;100235.81;;;14.51;57.21
36222;BME280;22266;52.340;4.962;2023-03-23T13:01:52;100233.88;;;14.40;57.26
36222;BME280;22266;52.340;4.962;2023-03-23T13:04:25;100241.19;;;14.40;57.44
36222;BME280;22266;52.340;4.962;2023-03-23T13:06:52;100243.94;;;14.63;57.64
36222;BME280;22266;52.340;4.962;2023-03-23T13:09:30;100233.31;;;14.73;56.59
36222;BME280;22266;52.340;4.962;2023-03-23T13:11:59;100252.75;;;14.82;56.34
36222;BME280;22266;52.340;4.962;2023-03-23T13:15:06;100227.28;;;14.95;56.36
36222;BME280;22266;52.340;4.962;2023-03-23T13:17:43;100249.81;;;14.83;57.00
36222;BME280;22266;52.340;4.962;2023-03-23T13:27:59;100248.75;;;14.96;56.34
36222;BME280;22266;52.340;4.962;2023-03-23T13:30:27;100236.81;;;15.09;55.87
36222;BME280;22266;52.340;4.962;2023-03-23T13:33:05;100243.53;;;15.06;55.62
36222;BME280;22266;52.340;4.962;2023-03-23T13:35:37;100251.19;;;14.98;56.06
36222;BME280;22266;52.340;4.962;2023-03-23T13:38:25;100258.25;;;14.99;56.49
36222;BME280;22266;52.340;4.962;2023-03-23T13:40:52;100256.88;;;14.96;57.26
36222;BME280;22266;52.340;4.962;2023-03-23T13:43:33;100254.63;;;14.93;57.32
36222;BME280;22266;52.340;4.962;2023-03-23T13:48:43;100279.25;;;14.56;56.35
36222;BME280;22266;52.340;4.962;2023-03-23T13:51:35;100269.53;;;14.37;56.13
36222;BME280;22266;52.340;4.962;2023-03-23T13:57:25;100262.38;;;14.43;55.89
36222;BME280;22266;52.340;4.962;2023-03-23T13:59:58;100267.13;;;14.59;55.77
36222;BME280;22266;52.340;4.962;2023-03-23T14:02:38;100260.03;;;14.58;55.35
36222;BME280;22266;52.340;4.962;2023-03-23T14:07:57;100246.03;;;14.84;55.56
36222;BME280;22266;52.340;4.962;2023-03-23T14:10:35;100228.25;;;14.89;55.34
36222;BME280;22266;52.340;4.962;2023-03-23T14:13:03;100221.75;;;14.90;55.13
36222;BME280;22266;52.340;4.962;2023-03-23T14:15:30;100225.28;;;14.78;55.23
36222;BME280;22266;52.340;4.962;2023-03-23T14:17:56;100235.44;;;14.83;55.44
36222;BME280;22266;52.340;4.962;2023-03-23T14:20:30;100233.78;;;14.82;55.33
36222;BME280;22266;52.340;4.962;2023-03-23T14:22:58;100242.50;;;14.72;56.17
36222;BME280;22266;52.340;4.962;2023-03-23T14:25:28;100243.94;;;14.75;56.70
36222;BME280;22266;52.340;4.962;2023-03-23T14:27:56;100227.91;;;14.73;56.49
36222;BME280;22266;52.340;4.962;2023-03-23T14:30:24;100228.25;;;14.77;56.06
36222;BME280;22266;52.340;4.962;2023-03-23T14:33:01;100217.66;;;14.75;56.50
36222;BME280;22266;52.340;4.962;2023-03-23T14:35:30;100218.94;;;14.84;56.37
36222;BME280;22266;52.340;4.962;2023-03-23T14:37:57;100224.25;;;14.79;56.57
36222;BME280;22266;52.340;4.962;2023-03-23T14:40:26;100204.59;;;14.72;55.93
36222;BME280;22266;52.340;4.962;2023-03-23T14:42:52;100184.44;;;14.68;55.63
36222;BME280;22266;52.340;4.962;2023-03-23T14:45:21;100195.63;;;14.60;55.42
36222;BME280;22266;52.340;4.962;2023-03-23T14:47:58;100179.50;;;14.65;56.04